sensor_id;sensor_type;location;lat;lon;timestamp;pressure;altitude;pressure_sealevel;temperature;humidity
39891;BME280;25564;53.312;9.790;2023-03-01T00:00:53;102462.81;;;-3.28;85.02
39891;BME280;25564;53.312;9.790;2023-03-01T00:03:24;102487.59;;;-3.20;84.86
39891;BME280;25564;53.312;9.790;2023-03-01T00:05:56;102487.59;;;-3.20;85.04
39891;BME280;25564;53.312;9.790;2023-03-01T00:08:27;102472.19;;;-3.31;84.78
39891;BME280;25564;53.312;9.790;2023-03-01T00:11:13;102443.84;;;-3.41;85.16
39891;BME280;25564;53.312;9.790;2023-03-01T00:13:47;102482.09;;;-3.25;84.90
39891;BME280;25564;53.312;9.790;2023-03-01T00:16:22;102465.69;;;-3.37;84.86
39891;BME280;25564;53.312;9.790;2023-03-01T00:18:55;102461.00;;;-3.43;85.12
39891;BME280;25564;53.312;9.790;2023-03-01T00:21:27;102482.56;;;-3.31;85.09
39891;BME280;25564;53.312;9.790;2023-03-01T00:23:58;102487.56;;;-3.34;85.42
39891;BME280;25564;53.312;9.790;2023-03-01T00:26:30;102483.16;;;-3.35;85.33
39891;BME280;25564;53.312;9.790;2023-03-01T00:29:02;102429.81;;;-3.69;85.80
39891;BME280;25564;53.312;9.790;2023-03-01T00:31:34;102481.06;;;-3.40;85.39
39891;BME280;25564;53.312;9.790;2023-03-01T00:34:05;102457.28;;;-3.59;85.57
39891;BME280;25564;53.312;9.790;2023-03-01T00:36:37;102458.16;;;-3.59;85.09
39891;BME280;25564;53.312;9.790;2023-03-01T00:39:13;102457.38;;;-3.58;84.81
39891;BME280;25564;53.312;9.790;2023-03-01T00:41:45;102466.97;;;-3.57;85.46
39891;BME280;25564;53.312;9.790;2023-03-01T00:44:16;102480.44;;;-3.49;85.30
39891;BME280;25564;53.312;9.790;2023-03-01T00:46:48;102473.16;;;-3.55;85.89
39891;BME280;25564;53.312;9.790;2023-03-01T00:49:19;102446.38;;;-3.67;85.64
39891;BME280;25564;53.312;9.790;2023-03-01T00:51:51;102475.94;;;-3.52;85.59
39891;BME280;25564;53.312;9.790;2023-03-01T00:54:22;102473.34;;;-3.52;85.49
39891;BME280;25564;53.312;9.790;2023-03-01T00:56:53;102469.66;;;-3.55;85.54
39891;BME280;25564;53.312;9.790;2023-03-01T00:59:25;102470.56;;;-3.55;85.62
39891;BME280;25564;53.312;9.790;2023-03-01T01:01:56;102458.88;;;-3.62;85.47
39891;BME280;25564;53.312;9.790;2023-03-01T01:04:27;102472.16;;;-3.57;85.46
39891;BME280;25564;53.312;9.790;2023-03-01T01:06:59;102475.44;;;-3.59;85.56
39891;BME280;25564;53.312;9.790;2023-03-01T01:09:30;102467.66;;;-3.59;85.69
39891;BME280;25564;53.312;9.790;2023-03-01T01:12:01;102471.72;;;-3.63;85.74
39891;BME280;25564;53.312;9.790;2023-03-01T01:14:33;102441.16;;;-3.80;85.53
39891;BME280;25564;53.312;9.790;2023-03-01T01:17:05;102459.53;;;-3.77;85.84
39891;BME280;25564;53.312;9.790;2023-03-01T01:19:36;102473.13;;;-3.68;85.78
39891;BME280;25564;53.312;9.790;2023-03-01T01:22:07;102414.56;;;-4.03;85.94
39891;BME280;25564;53.312;9.790;2023-03-01T01:24:38;102443.34;;;-3.86;85.66
39891;BME280;25564;53.312;9.790;2023-03-01T01:27:10;102450.94;;;-3.76;85.83
39891;BME280;25564;53.312;9.790;2023-03-01T01:29:41;102451.94;;;-3.74;85.71
39891;BME280;25564;53.312;9.790;2023-03-01T01:32:13;102438.88;;;-3.76;85.85
39891;BME280;25564;53.312;9.790;2023-03-01T01:34:44;102425.19;;;-3.86;85.64
39891;BME280;25564;53.312;9.790;2023-03-01T01:37:15;102437.97;;;-3.76;85.71
39891;BME280;25564;53.312;9.790;2023-03-01T01:39:47;102451.16;;;-3.73;85.66
39891;BME280;25564;53.312;9.790;2023-03-01T01:42:18;102447.75;;;-3.72;86.03
39891;BME280;25564;53.312;9.790;2023-03-01T01:48:28;102440.47;;;-3.78;86.04
39891;BME280;25564;53.312;9.790;2023-03-01T01:51:14;102440.38;;;-3.79;85.98
39891;BME280;25564;53.312;9.790;2023-03-01T01:53:52;102440.25;;;-3.81;86.08
39891;BME280;25564;53.312;9.790;2023-03-01T01:56:26;102442.75;;;-3.82;86.22
39891;BME280;25564;53.312;9.790;2023-03-01T01:59:01;102437.34;;;-3.85;86.13
39891;BME280;25564;53.312;9.790;2023-03-01T02:01:33;102430.38;;;-3.86;85.67
39891;BME280;25564;53.312;9.790;2023-03-01T02:04:04;102418.88;;;-3.90;86.34
39891;BME280;25564;53.312;9.790;2023-03-01T02:06:39;102422.38;;;-3.89;85.83
39891;BME280;25564;53.312;9.790;2023-03-01T02:09:15;102396.72;;;-3.98;85.96
39891;BME280;25564;53.312;9.790;2023-03-01T02:11:51;102395.81;;;-3.99;86.04
39891;BME280;25564;53.312;9.790;2023-03-01T02:14:23;102415.50;;;-3.89;85.99
39891;BME280;25564;53.312;9.790;2023-03-01T02:16:54;102401.22;;;-3.96;86.51
39891;BME280;25564;53.312;9.790;2023-03-01T02:19:59;102405.81;;;-3.91;86.68
39891;BME280;25564;53.312;9.790;2023-03-01T02:22:38;102405.41;;;-3.98;86.73
39891;BME280;25564;53.312;9.790;2023-03-01T02:27:55;102409.91;;;-3.95;86.31
39891;BME280;25564;53.312;9.790;2023-03-01T02:30:30;102377.25;;;-4.18;86.89
39891;BME280;25564;53.312;9.790;2023-03-01T02:33:04;102371.28;;;-4.17;86.51
39891;BME280;25564;53.312;9.790;2023-03-01T02:35:38;102398.41;;;-3.99;86.26
39891;BME280;25564;53.312;9.790;2023-03-01T02:38:09;102405.28;;;-3.99;86.60
39891;BME280;25564;53.312;9.790;2023-03-01T02:40:41;102385.03;;;-4.05;86.36
39891;BME280;25564;53.312;9.790;2023-03-01T02:43:14;102400.00;;;-4.01;86.42
39891;BME280;25564;53.312;9.790;2023-03-01T02:45:53;102380.03;;;-4.15;86.19
39891;BME280;25564;53.312;9.790;2023-03-01T02:48:24;102404.28;;;-4.01;86.60
39891;BME280;25564;53.312;9.790;2023-03-01T02:51:13;102395.41;;;-4.05;86.38
39891;BME280;25564;53.312;9.790;2023-03-01T02:54:06;102400.69;;;-4.03;86.84
39891;BME280;25564;53.312;9.790;2023-03-01T02:56:45;102407.56;;;-4.04;86.86
39891;BME280;25564;53.312;9.790;2023-03-01T02:59:22;102403.19;;;-4.05;86.76
39891;BME280;25564;53.312;9.790;2023-03-01T03:01:55;102370.84;;;-4.23;86.88
39891;BME280;25564;53.312;9.790;2023-03-01T03:04:27;102396.88;;;-4.08;87.44
39891;BME280;25564;53.312;9.790;2023-03-01T03:06:58;102369.06;;;-4.24;86.70
39891;BME280;25564;53.312;9.790;2023-03-01T03:09:29;102394.19;;;-4.10;86.64
39891;BME280;25564;53.312;9.790;2023-03-01T03:12:01;102369.06;;;-4.24;86.73
39891;BME280;25564;53.312;9.790;2023-03-01T03:14:32;102397.78;;;-4.08;86.76
39891;BME280;25564;53.312;9.790;2023-03-01T03:17:05;102366.47;;;-4.24;86.48
39891;BME280;25564;53.312;9.790;2023-03-01T03:19:37;102366.78;;;-4.19;86.35
39891;BME280;25564;53.312;9.790;2023-03-01T03:22:09;102358.22;;;-4.18;86.49
39891;BME280;25564;53.312;9.790;2023-03-01T03:24:40;102382.25;;;-4.08;86.50
39891;BME280;25564;53.312;9.790;2023-03-01T03:27:11;102389.44;;;-4.04;86.73
39891;BME280;25564;53.312;9.790;2023-03-01T03:29:42;102379.16;;;-4.02;86.81
39891;BME280;25564;53.312;9.790;2023-03-01T03:32:14;102372.28;;;-4.02;86.90
39891;BME280;25564;53.312;9.790;2023-03-01T03:34:45;102359.22;;;-4.03;86.59
39891;BME280;25564;53.312;9.790;2023-03-01T03:37:16;102361.31;;;-3.98;86.70
39891;BME280;25564;53.312;9.790;2023-03-01T03:40:11;102369.50;;;-3.91;86.45
39891;BME280;25564;53.312;9.790;2023-03-01T03:42:46;102376.50;;;-3.90;86.54
39891;BME280;25564;53.312;9.790;2023-03-01T03:45:18;102373.81;;;-3.92;86.73
39891;BME280;25564;53.312;9.790;2023-03-01T03:47:49;102371.09;;;-3.93;86.60
39891;BME280;25564;53.312;9.790;2023-03-01T03:50:21;102370.31;;;-3.92;86.79
39891;BME280;25564;53.312;9.790;2023-03-01T03:52:52;102351.34;;;-4.05;86.49
39891;BME280;25564;53.312;9.790;2023-03-01T03:55:23;102356.94;;;-3.99;86.71
39891;BME280;25564;53.312;9.790;2023-03-01T03:58:00;102373.31;;;-3.86;86.75
39891;BME280;25564;53.312;9.790;2023-03-01T04:00:43;102363.16;;;-3.83;86.85
39891;BME280;25564;53.312;9.790;2023-03-01T04:03:17;102350.19;;;-3.83;86.65
39891;BME280;25564;53.312;9.790;2023-03-01T04:05:50;102360.56;;;-3.70;86.71
39891;BME280;25564;53.312;9.790;2023-03-01T04:08:23;102354.59;;;-3.69;86.85
39891;BME280;25564;53.312;9.790;2023-03-01T04:10:59;102363.38;;;-3.67;86.57
39891;BME280;25564;53.312;9.790;2023-03-01T04:13:53;102356.28;;;-3.70;86.86
39891;BME280;25564;53.312;9.790;2023-03-01T04:16:25;102351.19;;;-3.81;86.53
39891;BME280;25564;53.312;9.790;2023-03-01T04:18:56;102339.81;;;-3.83;86.84
39891;BME280;25564;53.312;9.790;2023-03-01T04:21:30;102343.91;;;-3.74;86.76
39891;BME280;25564;53.312;9.790;2023-03-01T04:24:02;102312.47;;;-3.91;87.19
39891;BME280;25564;53.312;9.790;2023-03-01T04:26:34;102309.69;;;-3.95;86.81
39891;BME280;25564;53.312;9.790;2023-03-01T04:29:06;102348.00;;;-3.77;87.19
39891;BME280;25564;53.312;9.790;2023-03-01T04:31:37;102344.31;;;-3.81;86.93
39891;BME280;25564;53.312;9.790;2023-03-01T04:34:09;102350.69;;;-3.76;87.05
39891;BME280;25564;53.312;9.790;2023-03-01T04:36:40;102351.09;;;-3.70;87.09
39891;BME280;25564;53.312;9.790;2023-03-01T04:39:11;102354.09;;;-3.64;86.99
39891;BME280;25564;53.312;9.790;2023-03-01T04:41:45;102357.19;;;-3.56;87.02
39891;BME280;25564;53.312;9.790;2023-03-01T04:44:17;102355.91;;;-3.49;87.10
39891;BME280;25564;53.312;9.790;2023-03-01T04:46:49;102352.91;;;-3.42;87.59
39891;BME280;25564;53.312;9.790;2023-03-01T04:49:21;102357.19;;;-3.30;86.75
39891;BME280;25564;53.312;9.790;2023-03-01T04:51:52;102352.88;;;-3.16;86.92
39891;BME280;25564;53.312;9.790;2023-03-01T04:54:23;102318.66;;;-3.23;87.11
39891;BME280;25564;53.312;9.790;2023-03-01T04:56:55;102332.84;;;-3.04;86.94
39891;BME280;25564;53.312;9.790;2023-03-01T04:59:26;102347.09;;;-2.84;86.60
39891;BME280;25564;53.312;9.790;2023-03-01T05:01:58;102346.88;;;-2.74;86.76
39891;BME280;25564;53.312;9.790;2023-03-01T05:04:31;102344.13;;;-2.62;87.17
39891;BME280;25564;53.312;9.790;2023-03-01T05:07:02;102344.88;;;-2.50;86.63
39891;BME280;25564;53.312;9.790;2023-03-01T05:09:34;102348.13;;;-2.39;86.67
39891;BME280;25564;53.312;9.790;2023-03-01T05:12:05;102348.06;;;-2.26;86.88
39891;BME280;25564;53.312;9.790;2023-03-01T05:14:37;102338.22;;;-2.17;86.59
39891;BME280;25564;53.312;9.790;2023-03-01T05:17:09;102334.44;;;-2.07;86.39
39891;BME280;25564;53.312;9.790;2023-03-01T05:19:40;102336.78;;;-1.97;86.88
39891;BME280;25564;53.312;9.790;2023-03-01T05:22:13;102330.78;;;-1.81;85.95
39891;BME280;25564;53.312;9.790;2023-03-01T05:24:45;102322.16;;;-1.80;86.06
39891;BME280;25564;53.312;9.790;2023-03-01T05:27:17;102322.88;;;-1.68;86.81
39891;BME280;25564;53.312;9.790;2023-03-01T05:29:49;102333.44;;;-1.50;86.93
39891;BME280;25564;53.312;9.790;2023-03-01T05:32:20;102329.13;;;-1.50;86.08
39891;BME280;25564;53.312;9.790;2023-03-01T05:34:51;102323.13;;;-1.49;86.56
39891;BME280;25564;53.312;9.790;2023-03-01T05:37:23;102342.38;;;-1.30;86.80
39891;BME280;25564;53.312;9.790;2023-03-01T05:39:54;102336.63;;;-1.25;86.58
39891;BME280;25564;53.312;9.790;2023-03-01T05:42:25;102342.16;;;-1.19;86.06
39891;BME280;25564;53.312;9.790;2023-03-01T05:44:57;102342.25;;;-1.17;86.83
39891;BME280;25564;53.312;9.790;2023-03-01T05:47:28;102329.31;;;-1.16;87.01
39891;BME280;25564;53.312;9.790;2023-03-01T05:49:59;102319.16;;;-1.11;86.67
39891;BME280;25564;53.312;9.790;2023-03-01T05:52:31;102337.22;;;-0.98;86.57
39891;BME280;25564;53.312;9.790;2023-03-01T05:55:02;102350.50;;;-0.93;86.98
39891;BME280;25564;53.312;9.790;2023-03-01T05:57:34;102342.03;;;-0.89;85.89
39891;BME280;25564;53.312;9.790;2023-03-01T06:00:06;102339.84;;;-0.82;86.73
39891;BME280;25564;53.312;9.790;2023-03-01T06:02:37;102335.78;;;-0.77;86.03
39891;BME280;25564;53.312;9.790;2023-03-01T06:05:10;102338.72;;;-0.71;86.39
39891;BME280;25564;53.312;9.790;2023-03-01T06:07:42;102332.63;;;-0.71;86.97
39891;BME280;25564;53.312;9.790;2023-03-01T06:10:14;102340.13;;;-0.61;86.94
39891;BME280;25564;53.312;9.790;2023-03-01T06:12:46;102331.47;;;-0.60;86.96
39891;BME280;25564;53.312;9.790;2023-03-01T06:15:18;102314.63;;;-0.67;86.20
39891;BME280;25564;53.312;9.790;2023-03-01T06:17:50;102333.34;;;-0.57;86.32
39891;BME280;25564;53.312;9.790;2023-03-01T06:20:23;102327.50;;;-0.53;86.33
39891;BME280;25564;53.312;9.790;2023-03-01T06:22:55;102317.22;;;-0.50;86.54
39891;BME280;25564;53.312;9.790;2023-03-01T06:25:27;102302.88;;;-0.58;86.99
39891;BME280;25564;53.312;9.790;2023-03-01T06:27:58;102302.56;;;-0.64;86.23
39891;BME280;25564;53.312;9.790;2023-03-01T06:30:29;102304.09;;;-0.52;86.93
39891;BME280;25564;53.312;9.790;2023-03-01T06:33:01;102315.75;;;-0.45;87.00
39891;BME280;25564;53.312;9.790;2023-03-01T06:35:34;102317.56;;;-0.44;86.99
39891;BME280;25564;53.312;9.790;2023-03-01T06:38:07;102314.44;;;-0.37;87.42
39891;BME280;25564;53.312;9.790;2023-03-01T06:40:38;102301.97;;;-0.43;86.57
39891;BME280;25564;53.312;9.790;2023-03-01T06:43:09;102308.66;;;-0.31;86.44
39891;BME280;25564;53.312;9.790;2023-03-01T06:45:41;102305.22;;;-0.30;86.54
39891;BME280;25564;53.312;9.790;2023-03-01T06:48:14;102312.13;;;-0.15;86.38
39891;BME280;25564;53.312;9.790;2023-03-01T06:50:45;102319.47;;;-0.08;85.89
39891;BME280;25564;53.312;9.790;2023-03-01T06:53:16;102316.34;;;-0.01;86.53
39891;BME280;25564;53.312;9.790;2023-03-01T06:55:54;102302.44;;;0.00;87.30
39891;BME280;25564;53.312;9.790;2023-03-01T06:58:25;102318.72;;;0.13;86.48
39891;BME280;25564;53.312;9.790;2023-03-01T07:00:57;102300.38;;;0.11;86.58
39891;BME280;25564;53.312;9.790;2023-03-01T07:03:28;102306.94;;;0.21;86.90
39891;BME280;25564;53.312;9.790;2023-03-01T07:05:59;102331.28;;;0.38;86.55
39891;BME280;25564;53.312;9.790;2023-03-01T07:08:31;102328.16;;;0.45;86.22
39891;BME280;25564;53.312;9.790;2023-03-01T07:11:02;102338.00;;;0.50;86.59
39891;BME280;25564;53.312;9.790;2023-03-01T07:13:34;102324.88;;;0.49;86.79
39891;BME280;25564;53.312;9.790;2023-03-01T07:16:06;102321.81;;;0.57;86.35
39891;BME280;25564;53.312;9.790;2023-03-01T07:18:38;102329.44;;;0.71;86.77
39891;BME280;25564;53.312;9.790;2023-03-01T07:21:12;102325.63;;;0.82;86.07
39891;BME280;25564;53.312;9.790;2023-03-01T07:23:43;102329.34;;;0.87;86.39
39891;BME280;25564;53.312;9.790;2023-03-01T07:26:18;102324.47;;;0.94;86.82
39891;BME280;25564;53.312;9.790;2023-03-01T07:28:49;102322.75;;;0.95;86.32
39891;BME280;25564;53.312;9.790;2023-03-01T07:31:20;102321.78;;;0.93;85.90
39891;BME280;25564;53.312;9.790;2023-03-01T07:33:51;102309.13;;;0.83;86.70
39891;BME280;25564;53.312;9.790;2023-03-01T07:36:23;102308.59;;;0.90;86.13
39891;BME280;25564;53.312;9.790;2023-03-01T07:38:54;102289.63;;;0.94;86.56
39891;BME280;25564;53.312;9.790;2023-03-01T07:41:26;102302.53;;;1.10;86.07
39891;BME280;25564;53.312;9.790;2023-03-01T07:43:58;102320.72;;;1.26;86.37
39891;BME280;25564;53.312;9.790;2023-03-01T07:46:29;102318.25;;;1.29;86.82
39891;BME280;25564;53.312;9.790;2023-03-01T07:49:01;102272.81;;;1.08;86.42
39891;BME280;25564;53.312;9.790;2023-03-01T07:51:32;102314.19;;;1.36;86.24
39891;BME280;25564;53.312;9.790;2023-03-01T07:54:04;102308.06;;;1.36;86.11
39891;BME280;25564;53.312;9.790;2023-03-01T07:56:35;102311.72;;;1.39;86.24
39891;BME280;25564;53.312;9.790;2023-03-01T07:59:06;102328.16;;;1.56;86.17
39891;BME280;25564;53.312;9.790;2023-03-01T08:01:38;102308.06;;;1.55;86.08
39891;BME280;25564;53.312;9.790;2023-03-01T08:04:09;102323.06;;;1.78;86.15
39891;BME280;25564;53.312;9.790;2023-03-01T08:06:41;102332.53;;;1.95;86.31
39891;BME280;25564;53.312;9.790;2023-03-01T08:09:12;102314.56;;;2.03;85.61
39891;BME280;25564;53.312;9.790;2023-03-01T08:11:44;102301.88;;;2.14;86.01
39891;BME280;25564;53.312;9.790;2023-03-01T08:14:15;102247.56;;;1.87;85.79
39891;BME280;25564;53.312;9.790;2023-03-01T08:16:49;102298.81;;;2.24;85.89
39891;BME280;25564;53.312;9.790;2023-03-01T08:19:20;102306.59;;;2.43;85.99
39891;BME280;25564;53.312;9.790;2023-03-01T08:21:51;102327.47;;;2.62;86.06
39891;BME280;25564;53.312;9.790;2023-03-01T08:24:23;102318.13;;;2.69;85.59
39891;BME280;25564;53.312;9.790;2023-03-01T08:26:55;102325.72;;;2.84;85.02
39891;BME280;25564;53.312;9.790;2023-03-01T08:29:26;102323.28;;;2.88;85.11
39891;BME280;25564;53.312;9.790;2023-03-01T08:31:57;102313.81;;;2.92;85.43
39891;BME280;25564;53.312;9.790;2023-03-01T08:34:29;102326.69;;;3.08;84.99
39891;BME280;25564;53.312;9.790;2023-03-01T08:37:02;102305.97;;;3.16;85.35
39891;BME280;25564;53.312;9.790;2023-03-01T08:39:33;102284.03;;;3.14;84.15
39891;BME280;25564;53.312;9.790;2023-03-01T08:42:05;102310.22;;;3.36;85.42
39891;BME280;25564;53.312;9.790;2023-03-01T08:44:36;102309.75;;;3.46;84.01
39891;BME280;25564;53.312;9.790;2023-03-01T08:47:07;102307.50;;;3.57;84.21
39891;BME280;25564;53.312;9.790;2023-03-01T08:49:39;102293.66;;;3.61;84.39
39891;BME280;25564;53.312;9.790;2023-03-01T08:52:10;102309.44;;;3.86;83.46
39891;BME280;25564;53.312;9.790;2023-03-01T08:54:41;102290.28;;;3.89;83.37
39891;BME280;25564;53.312;9.790;2023-03-01T08:57:13;102309.25;;;4.06;83.04
39891;BME280;25564;53.312;9.790;2023-03-01T08:59:44;102300.69;;;4.11;83.37
39891;BME280;25564;53.312;9.790;2023-03-01T09:02:17;102312.47;;;4.24;82.36
39891;BME280;25564;53.312;9.790;2023-03-01T09:04:49;102284.19;;;4.15;82.70
39891;BME280;25564;53.312;9.790;2023-03-01T09:07:20;102319.09;;;4.38;82.56
39891;BME280;25564;53.312;9.790;2023-03-01T09:09:51;102296.81;;;4.27;83.07
39891;BME280;25564;53.312;9.790;2023-03-01T09:12:24;102310.63;;;4.47;82.17
39891;BME280;25564;53.312;9.790;2023-03-01T09:14:56;102307.41;;;4.55;82.91
39891;BME280;25564;53.312;9.790;2023-03-01T09:17:27;102308.47;;;4.62;81.91
39891;BME280;25564;53.312;9.790;2023-03-01T09:19:59;102297.28;;;4.68;81.48
39891;BME280;25564;53.312;9.790;2023-03-01T09:22:32;102281.78;;;4.77;81.47
39891;BME280;25564;53.312;9.790;2023-03-01T09:25:04;102302.84;;;5.05;81.15
39891;BME280;25564;53.312;9.790;2023-03-01T09:27:35;102287.75;;;5.00;81.13
39891;BME280;25564;53.312;9.790;2023-03-01T09:30:07;102312.19;;;5.25;80.38
39891;BME280;25564;53.312;9.790;2023-03-01T09:32:39;102302.94;;;5.40;80.36
39891;BME280;25564;53.312;9.790;2023-03-01T09:35:13;102276.84;;;5.16;80.19
39891;BME280;25564;53.312;9.790;2023-03-01T09:37:45;102307.00;;;5.29;80.13
39891;BME280;25564;53.312;9.790;2023-03-01T09:40:23;102292.06;;;5.28;79.94
39891;BME280;25564;53.312;9.790;2023-03-01T09:43:06;102307.63;;;5.50;80.09
39891;BME280;25564;53.312;9.790;2023-03-01T09:45:41;102317.94;;;5.72;80.19
39891;BME280;25564;53.312;9.790;2023-03-01T09:48:20;102307.94;;;5.90;80.05
39891;BME280;25564;53.312;9.790;2023-03-01T09:50:56;102303.84;;;6.02;79.65
39891;BME280;25564;53.312;9.790;2023-03-01T09:53:32;102302.16;;;6.04;79.51
39891;BME280;25564;53.312;9.790;2023-03-01T09:59:26;102305.66;;;6.04;79.19
39891;BME280;25564;53.312;9.790;2023-03-01T10:02:31;102304.13;;;6.12;78.87
39891;BME280;25564;53.312;9.790;2023-03-01T10:07:58;102281.09;;;6.41;79.01
39891;BME280;25564;53.312;9.790;2023-03-01T10:16:45;102297.66;;;6.36;78.89
39891;BME280;25564;53.312;9.790;2023-03-01T10:19:32;102293.28;;;6.36;79.08
39891;BME280;25564;53.312;9.790;2023-03-01T10:24:48;102274.56;;;6.62;79.31
39891;BME280;25564;53.312;9.790;2023-03-01T10:27:47;102284.53;;;6.73;79.14
39891;BME280;25564;53.312;9.790;2023-03-01T10:30:21;102291.19;;;6.95;79.44
39891;BME280;25564;53.312;9.790;2023-03-01T10:32:53;102290.50;;;7.04;79.25
39891;BME280;25564;53.312;9.790;2023-03-01T10:35:28;102274.50;;;6.96;78.87
39891;BME280;25564;53.312;9.790;2023-03-01T10:38:06;102282.59;;;7.05;78.80
39891;BME280;25564;53.312;9.790;2023-03-01T10:40:53;102286.38;;;7.16;78.52
39891;BME280;25564;53.312;9.790;2023-03-01T10:43:43;102286.59;;;7.29;78.87
39891;BME280;25564;53.312;9.790;2023-03-01T10:46:23;102285.88;;;7.36;78.56
39891;BME280;25564;53.312;9.790;2023-03-01T10:49:15;102282.38;;;7.37;78.26
39891;BME280;25564;53.312;9.790;2023-03-01T10:51:49;102276.50;;;7.51;78.89
39891;BME280;25564;53.312;9.790;2023-03-01T10:54:29;102278.81;;;7.78;78.35
39891;BME280;25564;53.312;9.790;2023-03-01T10:57:04;102267.56;;;7.90;77.99
39891;BME280;25564;53.312;9.790;2023-03-01T10:59:38;102278.41;;;8.05;77.57
39891;BME280;25564;53.312;9.790;2023-03-01T11:02:26;102277.84;;;8.23;77.34
39891;BME280;25564;53.312;9.790;2023-03-01T11:05:17;102265.91;;;8.48;77.39
39891;BME280;25564;53.312;9.790;2023-03-01T11:07:58;102278.53;;;8.64;76.62
39891;BME280;25564;53.312;9.790;2023-03-01T11:10:32;102272.38;;;8.67;77.02
39891;BME280;25564;53.312;9.790;2023-03-01T11:13:18;102269.88;;;8.76;76.56
39891;BME280;25564;53.312;9.790;2023-03-01T11:16:06;102268.09;;;8.73;76.17
39891;BME280;25564;53.312;9.790;2023-03-01T11:18:39;102268.09;;;8.75;76.83
39891;BME280;25564;53.312;9.790;2023-03-01T11:21:18;102259.59;;;8.97;77.18
39891;BME280;25564;53.312;9.790;2023-03-01T11:23:50;102260.03;;;9.31;76.84
39891;BME280;25564;53.312;9.790;2023-03-01T11:26:21;102262.19;;;9.65;76.64
39891;BME280;25564;53.312;9.790;2023-03-01T11:28:55;102258.72;;;9.72;76.29
39891;BME280;25564;53.312;9.790;2023-03-01T11:31:29;102268.34;;;9.63;76.22
39891;BME280;25564;53.312;9.790;2023-03-01T11:34:11;102259.25;;;9.41;75.74
39891;BME280;25564;53.312;9.790;2023-03-01T11:36:49;102235.06;;;9.10;75.95
39891;BME280;25564;53.312;9.790;2023-03-01T11:39:27;102241.91;;;8.95;76.34
39891;BME280;25564;53.312;9.790;2023-03-01T11:42:10;102250.47;;;8.75;75.88
39891;BME280;25564;53.312;9.790;2023-03-01T11:44:54;102239.63;;;8.59;76.85
39891;BME280;25564;53.312;9.790;2023-03-01T11:47:38;102247.69;;;8.66;76.94
39891;BME280;25564;53.312;9.790;2023-03-01T11:50:20;102254.00;;;8.76;75.80
39891;BME280;25564;53.312;9.790;2023-03-01T11:53:34;102243.41;;;8.76;76.70
39891;BME280;25564;53.312;9.790;2023-03-01T11:56:21;102241.63;;;8.73;76.71
39891;BME280;25564;53.312;9.790;2023-03-01T11:59:13;102233.63;;;8.70;76.34
39891;BME280;25564;53.312;9.790;2023-03-01T12:07:36;102217.75;;;8.70;76.35
39891;BME280;25564;53.312;9.790;2023-03-01T12:13:15;102223.16;;;8.78;76.83
39891;BME280;25564;53.312;9.790;2023-03-01T12:16:01;102220.53;;;8.81;76.29
39891;BME280;25564;53.312;9.790;2023-03-01T12:27:32;102202.94;;;8.83;76.87
39891;BME280;25564;53.312;9.790;2023-03-01T12:30:39;102201.28;;;8.91;76.18
39891;BME280;25564;53.312;9.790;2023-03-01T12:36:21;102181.03;;;8.96;75.81
39891;BME280;25564;53.312;9.790;2023-03-01T12:39:17;102171.34;;;8.98;76.56
39891;BME280;25564;53.312;9.790;2023-03-01T12:42:06;102180.25;;;9.03;76.34
39891;BME280;25564;53.312;9.790;2023-03-01T12:44:57;102171.44;;;9.06;76.17
39891;BME280;25564;53.312;9.790;2023-03-01T12:50:47;102157.44;;;9.16;76.46
39891;BME280;25564;53.312;9.790;2023-03-01T12:53:39;102154.78;;;9.14;75.59
39891;BME280;25564;53.312;9.790;2023-03-01T12:56:15;102159.19;;;9.14;76.12
39891;BME280;25564;53.312;9.790;2023-03-01T12:58:51;102165.41;;;9.17;75.90
39891;BME280;25564;53.312;9.790;2023-03-01T13:02:03;102161.84;;;9.15;75.11
39891;BME280;25564;53.312;9.790;2023-03-01T13:07:37;102149.63;;;9.28;75.41
39891;BME280;25564;53.312;9.790;2023-03-01T13:12:52;102151.63;;;9.54;75.97
39891;BME280;25564;53.312;9.790;2023-03-01T13:18:02;102144.69;;;9.66;74.50
39891;BME280;25564;53.312;9.790;2023-03-01T13:23:24;102141.22;;;9.73;74.54
39891;BME280;25564;53.312;9.790;2023-03-01T13:33:51;102136.69;;;9.60;74.93
39891;BME280;25564;53.312;9.790;2023-03-01T13:39:03;102140.88;;;9.38;75.35
39891;BME280;25564;53.312;9.790;2023-03-01T13:46:58;102126.81;;;9.45;74.70
39891;BME280;25564;53.312;9.790;2023-03-01T13:49:49;102134.88;;;9.56;73.64
39891;BME280;25564;53.312;9.790;2023-03-01T13:55:38;102133.88;;;9.45;74.58
39891;BME280;25564;53.312;9.790;2023-03-01T14:01:04;102133.00;;;9.46;74.47
39891;BME280;25564;53.312;9.790;2023-03-01T14:03:41;102121.50;;;9.44;74.82
39891;BME280;25564;53.312;9.790;2023-03-01T14:06:16;102131.25;;;9.48;74.64
39891;BME280;25564;53.312;9.790;2023-03-01T14:09:05;102111.75;;;9.38;74.54
39891;BME280;25564;53.312;9.790;2023-03-01T14:12:06;102117.94;;;9.36;73.43
39891;BME280;25564;53.312;9.790;2023-03-01T14:15:04;102094.84;;;9.23;73.47
39891;BME280;25564;53.312;9.790;2023-03-01T14:20:20;102116.13;;;9.32;74.32
39891;BME280;25564;53.312;9.790;2023-03-01T14:22:59;102105.47;;;9.27;75.00
39891;BME280;25564;53.312;9.790;2023-03-01T14:25:34;102107.25;;;9.27;74.85
39891;BME280;25564;53.312;9.790;2023-03-01T14:30:49;102090.41;;;9.22;75.08
39891;BME280;25564;53.312;9.790;2023-03-01T14:33:29;102101.03;;;9.23;74.98
39891;BME280;25564;53.312;9.790;2023-03-01T14:36:09;102104.59;;;9.27;75.35
39891;BME280;25564;53.312;9.790;2023-03-01T14:38:45;102098.47;;;9.34;75.45
39891;BME280;25564;53.312;9.790;2023-03-01T14:41:19;102079.03;;;9.32;75.52
39891;BME280;25564;53.312;9.790;2023-03-01T14:43:57;102089.66;;;9.39;74.90
39891;BME280;25564;53.312;9.790;2023-03-01T14:46:37;102079.94;;;9.38;74.86
39891;BME280;25564;53.312;9.790;2023-03-01T14:49:23;102074.66;;;9.35;75.73
39891;BME280;25564;53.312;9.790;2023-03-01T14:54:41;102070.06;;;9.16;75.67
39891;BME280;25564;53.312;9.790;2023-03-01T14:57:25;102069.97;;;9.07;75.75
39891;BME280;25564;53.312;9.790;2023-03-01T14:59:58;102066.31;;;8.96;75.70
39891;BME280;25564;53.312;9.790;2023-03-01T15:02:32;102060.94;;;8.88;75.85